Rechercher aéroport 
image banner adimage banner adimage banner ad
image banner ad

CN14 - Queen Of The Valley Hospital

Situé à Napa, United States

ICAO - CN14, IATA -

Données fournies par Airmate  

Information générale

Coordonnées: N38°19'26" W122°17'50"
Élévation : 49 feet MSL.
Variation magnétique : 16° East
Voir autres Aéroports à California

Données opérationnelles

Special qualification required
Heure actuelle UTC:
Heure actuelle locale:
Météo à : KAPC - Napa County ( 12 km )
METAR: KAPC 262154Z 20016G21KT 10SM CLR 18/13 A2990 RMK AO2 SLP118 T01830133
TAF: KAPC 261720Z 2618/2718 22008KT P6SM SKC FM262100 20015KT P6SM SCT200 FM270100 20015KT P6SM BKN200 FM270700 25011KT P6SM OVC015 FM271000 24008KT P6SM SCT015 BKN050 BKN200
Voir NOTAMs / SUP AIP / TFR affectant cet aéroport [VIEW]
Fréquences de communication: [VIEW]

Pistes:

Coordonnées de l'aéroport

Adresse: Napa United States

Vue satellite de CN14